createdAt,value
2017-08-30T00:00:27.020Z,79.70
2017-08-30T00:02:54.520Z,79.60
2017-08-30T00:05:22.047Z,79.90
2017-08-30T00:07:49.575Z,80.00
2017-08-30T00:10:17.139Z,80.40
2017-08-30T00:12:44.631Z,80.60
2017-08-30T00:15:12.142Z,80.70
2017-08-30T00:17:39.678Z,80.60
2017-08-30T00:20:07.189Z,80.60
2017-08-30T00:22:34.763Z,80.80
2017-08-30T00:25:14.124Z,80.80
2017-08-30T00:27:41.643Z,81.20
2017-08-30T00:30:09.144Z,81.10
2017-08-30T00:32:36.648Z,81.60
2017-08-30T00:35:04.162Z,81.70
2017-08-30T00:37:31.789Z,81.70
2017-08-30T00:39:59.309Z,81.70
2017-08-30T00:42:26.839Z,81.80
2017-08-30T00:44:55.150Z,82.30
2017-08-30T00:47:22.674Z,82.30
2017-08-30T00:49:50.209Z,82.30
2017-08-30T00:52:17.714Z,82.30
2017-08-30T00:54:45.215Z,82.40
2017-08-30T00:57:12.711Z,82.50
2017-08-30T00:59:40.232Z,82.80
2017-08-30T01:02:07.746Z,82.90
2017-08-30T01:04:35.257Z,82.90
2017-08-30T01:07:02.790Z,83.10
2017-08-30T01:09:30.295Z,83.40
2017-08-30T01:11:57.821Z,83.30
2017-08-30T01:14:25.312Z,83.60
2017-08-30T01:16:52.818Z,83.60
2017-08-30T01:19:20.313Z,83.50
2017-08-30T01:21:47.817Z,83.70
2017-08-30T01:24:15.336Z,83.80
2017-08-30T01:26:42.848Z,83.90
2017-08-30T01:29:10.353Z,83.80
2017-08-30T01:31:37.870Z,83.90
2017-08-30T01:34:05.375Z,84.00
2017-08-30T01:36:32.883Z,84.00
2017-08-30T01:39:00.404Z,84.10
2017-08-30T01:41:28.088Z,84.50
2017-08-30T01:43:55.582Z,84.50
2017-08-30T01:46:23.103Z,84.70
2017-08-30T01:48:50.606Z,84.80
2017-08-30T01:51:18.121Z,85.00
2017-08-30T01:53:45.660Z,85.10
2017-08-30T01:56:13.172Z,85.20
2017-08-30T01:58:40.711Z,85.40
2017-08-30T02:01:08.233Z,85.70
2017-08-30T02:03:35.756Z,85.40
2017-08-30T02:06:03.292Z,85.90
2017-08-30T02:08:30.776Z,85.80
2017-08-30T02:10:58.294Z,86.00
2017-08-30T02:13:25.816Z,86.10
2017-08-30T02:15:53.314Z,86.40
2017-08-30T02:18:20.817Z,86.40
2017-08-30T02:20:48.318Z,86.60
2017-08-30T02:23:15.833Z,86.80
2017-08-30T02:25:43.346Z,86.90
2017-08-30T02:28:10.861Z,86.90
2017-08-30T02:30:38.360Z,86.90
2017-08-30T02:33:05.866Z,86.80
2017-08-30T02:35:33.657Z,86.90
2017-08-30T02:38:01.155Z,87.00
2017-08-30T02:40:28.650Z,87.00
2017-08-30T02:42:56.146Z,86.70
2017-08-30T02:45:23.650Z,86.70
2017-08-30T02:47:51.178Z,86.70
2017-08-30T02:50:19.260Z,87.00
2017-08-30T02:52:46.834Z,87.40
2017-08-30T02:55:14.346Z,87.50
2017-08-30T02:57:41.831Z,87.50
2017-08-30T03:00:09.375Z,87.40
2017-08-30T03:02:36.873Z,87.40
2017-08-30T03:05:04.761Z,87.40
2017-08-30T03:07:32.292Z,87.50
2017-08-30T03:09:59.788Z,87.60
2017-08-30T03:12:27.292Z,87.80
2017-08-30T03:14:54.827Z,87.60
2017-08-30T03:17:22.331Z,87.00
2017-08-30T03:19:49.918Z,87.20
2017-08-30T03:22:17.431Z,87.50
2017-08-30T03:24:44.928Z,87.70
2017-08-30T03:27:12.438Z,87.80
2017-08-30T03:29:39.917Z,87.90
2017-08-30T03:32:07.793Z,87.90
2017-08-30T03:34:35.292Z,87.90
2017-08-30T03:37:02.804Z,87.70
2017-08-30T03:39:30.304Z,87.50
2017-08-30T03:41:57.860Z,87.30
2017-08-30T03:44:25.359Z,87.50
2017-08-30T03:46:52.855Z,87.70
2017-08-30T03:49:20.386Z,88.00
2017-08-30T03:51:47.915Z,88.10
2017-08-30T03:54:15.409Z,88.00
2017-08-30T03:56:42.913Z,87.90
2017-08-30T03:59:10.887Z,88.30
2017-08-30T04:01:38.534Z,88.10
2017-08-30T04:04:06.058Z,88.00
2017-08-30T04:06:33.540Z,88.20
2017-08-30T04:09:01.055Z,88.50
2017-08-30T04:11:28.568Z,88.60
2017-08-30T04:13:56.134Z,88.90
2017-08-30T04:16:23.616Z,88.70
2017-08-30T04:18:51.115Z,89.00
2017-08-30T04:21:18.652Z,89.30
2017-08-30T04:23:46.167Z,89.60
2017-08-30T04:26:13.669Z,89.60
2017-08-30T04:28:41.205Z,90.00
2017-08-30T04:31:08.701Z,90.00
2017-08-30T04:33:36.242Z,90.00
2017-08-30T04:36:03.740Z,90.00
2017-08-30T04:38:31.301Z,90.10
2017-08-30T04:40:58.797Z,90.10
2017-08-30T04:43:27.172Z,90.20
2017-08-30T04:45:54.794Z,90.20
2017-08-30T04:48:22.318Z,90.20
2017-08-30T04:50:49.849Z,90.20
2017-08-30T04:53:17.372Z,90.00
2017-08-30T04:55:44.888Z,90.00
2017-08-30T04:58:12.398Z,89.80
2017-08-30T05:00:39.921Z,89.90
2017-08-30T05:03:07.447Z,90.10
2017-08-30T05:05:34.953Z,90.10
2017-08-30T05:08:02.477Z,90.10
2017-08-30T05:10:29.978Z,90.00
2017-08-30T05:12:57.491Z,90.00
2017-08-30T05:15:25.023Z,90.00
2017-08-30T05:17:52.540Z,90.00
2017-08-30T05:20:20.076Z,89.70
2017-08-30T05:22:47.591Z,90.00
2017-08-30T05:25:15.123Z,89.50
2017-08-30T05:27:42.648Z,89.30
2017-08-30T05:30:10.172Z,89.30
2017-08-30T05:32:37.718Z,89.80
2017-08-30T05:35:05.223Z,89.50
2017-08-30T05:37:32.734Z,89.20
2017-08-30T05:40:00.266Z,88.90
2017-08-30T05:42:27.766Z,88.80
2017-08-30T05:44:55.270Z,88.70
2017-08-30T05:47:22.816Z,88.20
2017-08-30T05:49:50.318Z,88.20
2017-08-30T05:52:17.855Z,88.00
2017-08-30T05:54:45.374Z,87.80
2017-08-30T05:57:12.900Z,87.60
2017-08-30T05:59:40.442Z,87.50
2017-08-30T06:02:07.948Z,87.40
2017-08-30T06:04:35.559Z,87.50
2017-08-30T06:07:03.084Z,87.50
2017-08-30T06:09:30.652Z,87.30
2017-08-30T06:11:58.188Z,87.30
2017-08-30T06:14:25.696Z,87.10
2017-08-30T06:16:53.224Z,87.20
2017-08-30T06:19:20.783Z,86.80
2017-08-30T06:21:48.344Z,86.90
2017-08-30T06:24:15.845Z,86.80
2017-08-30T06:26:43.406Z,87.20
2017-08-30T06:29:11.606Z,86.30
2017-08-30T06:31:39.204Z,87.20
2017-08-30T06:34:06.738Z,86.30
2017-08-30T06:36:34.259Z,86.10
2017-08-30T06:39:01.913Z,85.90
2017-08-30T06:41:29.506Z,85.10
2017-08-30T06:43:57.039Z,85.70
2017-08-30T06:46:24.709Z,85.20
2017-08-30T06:48:52.227Z,84.80
2017-08-30T06:51:19.797Z,84.80
2017-08-30T06:53:47.342Z,85.20
2017-08-30T06:56:14.859Z,85.20
2017-08-30T06:58:42.378Z,84.80
2017-08-30T07:01:09.922Z,85.00
2017-08-30T07:03:38.557Z,84.40
2017-08-30T07:06:06.079Z,84.30
2017-08-30T07:08:33.614Z,84.50
2017-08-30T07:11:01.125Z,84.40
2017-08-30T07:13:28.682Z,84.10
2017-08-30T07:15:56.208Z,82.80
2017-08-30T07:18:23.701Z,82.90
2017-08-30T07:20:51.198Z,83.00
2017-08-30T07:23:18.737Z,82.70
2017-08-30T07:25:46.257Z,82.00
2017-08-30T07:28:13.835Z,81.90
2017-08-30T07:30:41.406Z,81.90
2017-08-30T07:33:08.923Z,81.30
2017-08-30T07:35:36.435Z,81.40
2017-08-30T07:38:03.990Z,80.40
2017-08-30T07:40:31.523Z,80.60
2017-08-30T07:42:59.057Z,80.60
2017-08-30T07:45:26.594Z,80.00
2017-08-30T07:47:54.125Z,80.00
2017-08-30T07:50:21.638Z,79.80
2017-08-30T07:52:49.182Z,79.80
2017-08-30T07:55:16.665Z,80.20
2017-08-30T07:57:44.161Z,80.20
2017-08-30T08:00:11.655Z,80.00
2017-08-30T08:02:39.248Z,78.70
2017-08-30T08:05:06.776Z,79.10
2017-08-30T08:07:34.273Z,78.50
2017-08-30T08:10:01.773Z,78.60
2017-08-30T08:12:29.302Z,78.00
2017-08-30T08:14:56.806Z,77.40
2017-08-30T08:17:24.306Z,77.80
2017-08-30T08:19:51.823Z,77.80
2017-08-30T08:22:19.311Z,78.00
2017-08-30T08:24:46.814Z,77.20
2017-08-30T08:27:14.416Z,77.00
2017-08-30T08:29:41.971Z,76.00
2017-08-30T08:32:09.473Z,76.00
2017-08-30T08:34:37.004Z,76.00
2017-08-30T08:37:04.564Z,75.90
2017-08-30T08:39:33.469Z,76.00
2017-08-30T08:42:01.043Z,76.50
2017-08-30T08:44:28.560Z,75.60
2017-08-30T08:46:56.276Z,74.80
2017-08-30T08:49:23.812Z,74.00
2017-08-30T08:51:51.651Z,73.80
2017-08-30T08:54:29.013Z,73.90
2017-08-30T08:56:56.543Z,72.40
2017-08-30T08:59:24.051Z,72.40
2017-08-30T09:01:51.603Z,72.70
2017-08-30T09:04:19.123Z,71.90
2017-08-30T09:06:46.620Z,70.90
2017-08-30T09:09:14.116Z,70.40
2017-08-30T09:11:41.627Z,70.30
2017-08-30T09:14:09.148Z,70.10
2017-08-30T09:16:36.709Z,70.10
2017-08-30T09:19:04.241Z,69.60
2017-08-30T09:21:31.766Z,69.50
2017-08-30T09:23:59.330Z,69.30
2017-08-30T09:26:26.917Z,69.50
2017-08-30T09:28:54.447Z,68.70
2017-08-30T09:31:21.930Z,68.30
2017-08-30T09:33:49.461Z,69.20
2017-08-30T09:36:17.972Z,68.50
2017-08-30T09:38:45.480Z,68.20
2017-08-30T09:41:13.020Z,66.30
2017-08-30T09:43:40.535Z,64.20
2017-08-30T09:46:08.034Z,64.40
2017-08-30T09:48:35.578Z,63.20
2017-08-30T09:51:03.116Z,62.50
2017-08-30T09:53:30.640Z,63.20
2017-08-30T09:55:58.214Z,62.50
2017-08-30T09:58:25.789Z,62.90
2017-08-30T10:00:53.301Z,60.80
2017-08-30T10:03:20.811Z,59.70
2017-08-30T10:05:48.299Z,59.60
2017-08-30T10:08:15.824Z,59.60
2017-08-30T10:10:43.447Z,59.00
2017-08-30T10:13:10.984Z,58.90
2017-08-30T10:15:38.556Z,58.00
2017-08-30T10:18:06.087Z,58.30
2017-08-30T10:20:33.659Z,58.00
2017-08-30T10:23:01.167Z,57.70
2017-08-30T10:25:28.656Z,56.40
2017-08-30T10:27:56.519Z,55.80
2017-08-30T10:30:24.011Z,55.60
2017-08-30T10:32:51.540Z,54.50
2017-08-30T10:35:19.034Z,51.60
2017-08-30T10:37:46.553Z,48.40
2017-08-30T10:40:14.056Z,45.00
2017-08-30T10:42:41.570Z,41.70
2017-08-30T10:45:09.086Z,39.60
2017-08-30T10:47:36.594Z,36.60
2017-08-30T10:50:04.110Z,34.30
2017-08-30T10:52:31.911Z,32.60
2017-08-30T10:54:59.454Z,31.90
2017-08-30T10:57:26.975Z,31.10
2017-08-30T10:59:54.474Z,30.50
2017-08-30T11:02:21.978Z,31.50
2017-08-30T11:04:49.487Z,29.60
2017-08-30T11:07:17.042Z,28.20
2017-08-30T11:09:44.542Z,27.60
2017-08-30T11:12:12.039Z,27.70
2017-08-30T11:14:39.555Z,26.50
2017-08-30T11:17:07.100Z,26.10
2017-08-30T11:19:34.607Z,26.60
2017-08-30T11:22:03.170Z,26.90
2017-08-30T11:24:30.685Z,27.90
2017-08-30T11:26:58.197Z,27.90
2017-08-30T11:29:25.721Z,27.70
2017-08-30T11:31:53.239Z,26.50
2017-08-30T11:34:20.750Z,25.90
2017-08-30T11:36:48.296Z,26.60
2017-08-30T11:39:15.774Z,26.10
2017-08-30T11:41:43.273Z,25.80
2017-08-30T11:44:10.800Z,24.30
2017-08-30T11:46:38.379Z,23.80
2017-08-30T11:49:05.962Z,23.30
2017-08-30T11:51:33.468Z,23.20
2017-08-30T11:54:00.976Z,23.80
2017-08-30T11:56:28.511Z,23.90
2017-08-30T11:58:56.033Z,24.10
2017-08-30T12:01:23.624Z,24.20
2017-08-30T12:03:51.177Z,23.80
2017-08-30T12:06:18.664Z,24.40
2017-08-30T12:08:46.170Z,23.20
2017-08-30T12:11:13.690Z,23.40
2017-08-30T12:13:41.214Z,23.40
2017-08-30T12:16:08.695Z,23.40
2017-08-30T12:18:36.229Z,23.50
2017-08-30T12:21:03.762Z,23.70
2017-08-30T12:23:31.272Z,22.90
2017-08-30T12:25:58.839Z,23.50
2017-08-30T12:28:26.347Z,24.50
2017-08-30T12:30:53.837Z,25.20
2017-08-30T12:33:21.356Z,25.50
2017-08-30T12:35:48.966Z,26.00
2017-08-30T12:38:33.268Z,26.60
2017-08-30T12:41:00.795Z,26.60
2017-08-30T12:43:28.279Z,27.20
2017-08-30T12:45:55.785Z,27.80
2017-08-30T12:48:23.302Z,28.00
2017-08-30T12:50:50.828Z,29.30
2017-08-30T12:53:18.347Z,29.20
2017-08-30T12:55:45.850Z,29.10
2017-08-30T12:58:13.358Z,30.00
2017-08-30T13:00:40.869Z,30.00
2017-08-30T13:03:08.395Z,30.60
2017-08-30T13:05:36.601Z,30.00
2017-08-30T13:08:04.102Z,31.00
2017-08-30T13:10:31.608Z,31.70
2017-08-30T13:12:59.135Z,31.90
2017-08-30T13:15:26.666Z,32.00
2017-08-30T13:17:54.206Z,32.10
2017-08-30T13:20:21.748Z,31.90
2017-08-30T13:22:49.274Z,32.50
2017-08-30T13:25:16.770Z,33.00
2017-08-30T13:27:44.319Z,32.30
2017-08-30T13:30:13.101Z,32.30
2017-08-30T13:32:40.615Z,33.10
2017-08-30T13:35:08.130Z,34.00
2017-08-30T13:37:35.630Z,33.70
2017-08-30T13:40:03.162Z,33.40
2017-08-30T13:42:30.669Z,34.00
2017-08-30T13:44:58.279Z,34.10
2017-08-30T13:47:25.821Z,34.20
2017-08-30T13:49:53.306Z,34.50
2017-08-30T13:52:20.825Z,34.50
2017-08-30T13:54:48.343Z,35.70
2017-08-30T13:57:15.829Z,35.80
2017-08-30T13:59:43.319Z,36.10
2017-08-30T14:02:10.842Z,35.40
2017-08-30T14:04:38.349Z,35.90
2017-08-30T14:07:05.877Z,35.50
2017-08-30T14:09:33.410Z,35.20
2017-08-30T14:12:01.843Z,35.20
2017-08-30T14:14:29.357Z,35.10
2017-08-30T14:16:56.921Z,34.80
2017-08-30T14:19:24.445Z,35.90
2017-08-30T14:21:52.000Z,35.30
2017-08-30T14:24:19.665Z,35.80
2017-08-30T14:26:47.762Z,36.10
2017-08-30T14:29:15.293Z,36.30
2017-08-30T14:31:42.829Z,36.60
2017-08-30T14:34:11.351Z,34.90
2017-08-30T14:36:38.850Z,34.40
2017-08-30T14:39:06.369Z,35.80
2017-08-30T14:41:33.884Z,35.10
2017-08-30T14:44:01.414Z,35.20
2017-08-30T14:46:28.919Z,34.90
2017-08-30T14:48:56.429Z,35.20
2017-08-30T14:51:23.994Z,35.10
2017-08-30T14:53:51.490Z,34.60
2017-08-30T14:56:19.034Z,34.60
2017-08-30T14:58:46.519Z,35.80
2017-08-30T15:01:14.024Z,35.60
2017-08-30T15:03:41.547Z,35.20
2017-08-30T15:06:09.055Z,36.10
2017-08-30T15:08:36.564Z,35.70
2017-08-30T15:11:04.105Z,37.20
2017-08-30T15:13:31.653Z,37.20
2017-08-30T15:15:59.163Z,37.90
2017-08-30T15:18:26.670Z,37.00
2017-08-30T15:20:54.200Z,37.10
2017-08-30T15:23:21.697Z,37.70
2017-08-30T15:25:49.220Z,37.60
2017-08-30T15:28:16.760Z,37.10
2017-08-30T15:30:44.273Z,37.50
2017-08-30T15:33:11.790Z,38.20
2017-08-30T15:35:39.284Z,37.10
2017-08-30T15:38:06.792Z,36.90
2017-08-30T15:40:35.281Z,37.00
2017-08-30T15:43:02.850Z,36.30
2017-08-30T15:45:30.347Z,37.20
2017-08-30T15:47:57.875Z,37.10
2017-08-30T15:50:25.360Z,37.60
2017-08-30T15:52:52.870Z,37.50
2017-08-30T15:55:20.387Z,37.50
2017-08-30T15:57:47.894Z,37.70
2017-08-30T16:00:15.403Z,37.80
2017-08-30T16:02:42.960Z,37.70
2017-08-30T16:05:10.520Z,38.10
2017-08-30T16:07:38.026Z,38.00
2017-08-30T16:10:05.591Z,38.20
2017-08-30T16:12:33.115Z,38.30
2017-08-30T16:15:00.623Z,38.80
2017-08-30T16:17:28.174Z,38.50
2017-08-30T16:19:55.684Z,38.90
2017-08-30T16:22:23.218Z,39.00
2017-08-30T16:24:50.941Z,39.20
2017-08-30T16:27:18.479Z,39.60
2017-08-30T16:29:45.976Z,39.80
2017-08-30T16:32:13.486Z,39.90
2017-08-30T16:34:41.035Z,40.20
2017-08-30T16:37:08.565Z,40.70
2017-08-30T16:39:36.068Z,40.30
2017-08-30T16:42:03.567Z,40.50
2017-08-30T16:44:31.111Z,40.80
2017-08-30T16:46:58.610Z,40.50
2017-08-30T16:49:26.168Z,40.80
2017-08-30T16:51:53.812Z,40.70
2017-08-30T16:54:21.316Z,41.20
2017-08-30T16:56:48.824Z,40.80
2017-08-30T16:59:16.453Z,40.70
2017-08-30T17:01:43.983Z,41.00
2017-08-30T17:04:11.584Z,41.20
2017-08-30T17:06:39.087Z,41.30
2017-08-30T17:09:06.605Z,41.90
2017-08-30T17:11:34.120Z,42.00
2017-08-30T17:14:01.633Z,42.40
2017-08-30T17:16:29.161Z,42.10
2017-08-30T17:18:56.682Z,42.20
2017-08-30T17:21:24.201Z,42.70
2017-08-30T17:23:51.724Z,43.00
2017-08-30T17:26:19.290Z,42.70
2017-08-30T17:28:46.817Z,42.50
2017-08-30T17:31:14.353Z,42.60
2017-08-30T17:33:41.865Z,43.20
2017-08-30T17:36:09.360Z,43.30
2017-08-30T17:38:36.854Z,43.80
2017-08-30T17:41:04.407Z,43.60
2017-08-30T17:43:31.912Z,43.90
2017-08-30T17:45:59.411Z,43.70
2017-08-30T17:48:26.906Z,44.00
2017-08-30T17:50:54.574Z,44.40
2017-08-30T17:53:24.888Z,44.10
2017-08-30T17:55:53.448Z,44.70
2017-08-30T17:58:23.327Z,44.20
2017-08-30T18:00:51.362Z,44.60
2017-08-30T18:03:19.442Z,44.40
2017-08-30T18:05:46.950Z,44.90
2017-08-30T18:08:14.512Z,45.00
2017-08-30T18:10:42.025Z,46.00
2017-08-30T18:13:09.594Z,45.90
2017-08-30T18:15:37.196Z,46.30
2017-08-30T18:18:05.434Z,46.00
2017-08-30T18:20:32.958Z,46.10
2017-08-30T18:23:00.468Z,46.30
2017-08-30T18:25:29.806Z,47.20
2017-08-30T18:27:57.323Z,47.40
2017-08-30T18:30:25.125Z,47.10
2017-08-30T18:32:53.840Z,47.50
2017-08-30T18:35:22.395Z,47.80
2017-08-30T18:37:49.995Z,47.70
2017-08-30T18:40:18.217Z,47.50
2017-08-30T18:42:46.284Z,48.00
2017-08-30T18:45:13.875Z,48.20
2017-08-30T18:47:41.451Z,47.90
2017-08-30T18:50:12.666Z,48.00
2017-08-30T18:52:42.179Z,48.40
2017-08-30T18:55:10.943Z,49.20
2017-08-30T18:57:38.505Z,49.40
2017-08-30T19:00:06.266Z,49.10
2017-08-30T19:05:16.707Z,49.30
2017-08-30T19:07:50.692Z,49.40
2017-08-30T19:10:19.825Z,49.50
2017-08-30T19:12:49.418Z,50.10
2017-08-30T19:15:17.992Z,50.80
2017-08-30T19:17:45.490Z,50.30
2017-08-30T19:20:13.040Z,50.20
2017-08-30T19:25:15.037Z,50.00
2017-08-30T19:27:43.578Z,50.20
2017-08-30T19:30:17.438Z,50.20
2017-08-30T19:32:47.122Z,50.20
2017-08-30T19:35:17.179Z,50.10
2017-08-30T19:37:46.094Z,50.10
2017-08-30T19:40:14.918Z,50.20
2017-08-30T19:42:44.012Z,50.30
2017-08-30T19:45:26.123Z,50.50
2017-08-30T19:47:58.348Z,50.20
2017-08-30T19:50:35.698Z,50.20
2017-08-30T19:53:04.463Z,50.20
2017-08-30T19:55:32.989Z,51.10
2017-08-30T19:58:02.020Z,50.50
2017-08-30T20:00:29.721Z,51.00
2017-08-30T20:02:57.704Z,50.70
2017-08-30T20:05:25.697Z,50.50
2017-08-30T20:07:53.182Z,50.30
2017-08-30T20:10:20.831Z,50.30
2017-08-30T20:12:49.068Z,50.80
2017-08-30T20:15:17.620Z,50.60
2017-08-30T20:17:45.264Z,50.70
2017-08-30T20:20:17.597Z,51.30
2017-08-30T20:22:45.634Z,51.10
2017-08-30T20:25:13.362Z,51.30
2017-08-30T20:27:40.877Z,51.40
2017-08-30T20:30:08.597Z,51.00
2017-08-30T20:32:36.191Z,51.20
2017-08-30T20:35:03.694Z,51.90
2017-08-30T20:37:31.192Z,52.00
2017-08-30T20:39:58.694Z,52.20
2017-08-30T20:42:26.219Z,52.00
2017-08-30T20:44:53.779Z,52.20
2017-08-30T20:47:21.281Z,52.50
2017-08-30T20:49:48.911Z,52.00
2017-08-30T20:52:16.692Z,52.80
2017-08-30T20:54:44.186Z,52.80
2017-08-30T20:57:11.725Z,52.90
2017-08-30T20:59:43.658Z,52.20
2017-08-30T21:02:11.359Z,53.00
2017-08-30T21:04:38.921Z,52.50
2017-08-30T21:07:07.216Z,52.60
2017-08-30T21:09:34.786Z,52.40
2017-08-30T21:12:02.304Z,52.50
2017-08-30T21:14:29.902Z,52.30
2017-08-30T21:16:57.415Z,52.60
2017-08-30T21:19:24.964Z,52.90
2017-08-30T21:21:52.508Z,52.90
2017-08-30T21:24:20.228Z,52.90
2017-08-30T21:26:47.938Z,52.70
2017-08-30T21:29:15.471Z,52.80
2017-08-30T21:31:43.033Z,53.10
2017-08-30T21:34:10.560Z,53.00
2017-08-30T21:36:38.935Z,52.90
2017-08-30T21:39:06.558Z,52.80
2017-08-30T21:41:34.047Z,53.80
2017-08-30T21:44:01.660Z,53.40
2017-08-30T21:46:29.217Z,53.00
2017-08-30T21:48:56.725Z,53.00
2017-08-30T21:51:24.236Z,53.30
2017-08-30T21:53:51.770Z,53.00
2017-08-30T21:56:19.276Z,53.30
2017-08-30T21:58:47.052Z,53.40
2017-08-30T22:01:14.570Z,53.50
2017-08-30T22:03:42.070Z,53.70
2017-08-30T22:06:09.585Z,53.90
2017-08-30T22:08:37.138Z,54.10
2017-08-30T22:11:04.642Z,54.10
2017-08-30T22:13:32.149Z,54.30
2017-08-30T22:15:59.744Z,53.50
2017-08-30T22:18:27.352Z,54.00
2017-08-30T22:20:54.882Z,54.10
2017-08-30T22:23:22.515Z,54.80
2017-08-30T22:25:50.049Z,54.50
2017-08-30T22:28:17.584Z,54.70
2017-08-30T22:30:46.135Z,54.60
2017-08-30T22:33:13.681Z,54.30
2017-08-30T22:35:41.210Z,54.20
2017-08-30T22:38:08.722Z,54.40
2017-08-30T22:40:36.579Z,54.20
2017-08-30T22:43:04.183Z,54.50
2017-08-30T22:45:31.703Z,54.80
2017-08-30T22:47:59.215Z,54.80
2017-08-30T22:50:26.808Z,55.40
2017-08-30T22:52:54.300Z,55.20
2017-08-30T22:55:22.654Z,55.80
2017-08-30T22:57:52.230Z,56.00
2017-08-30T23:00:21.004Z,55.20
2017-08-30T23:02:48.577Z,55.70
2017-08-30T23:05:16.108Z,55.60
2017-08-30T23:07:47.009Z,56.40
2017-08-30T23:10:14.545Z,56.40
2017-08-30T23:12:42.058Z,56.40
2017-08-30T23:15:09.591Z,56.20
2017-08-30T23:17:37.099Z,56.10
2017-08-30T23:20:04.635Z,56.10
2017-08-30T23:22:32.170Z,56.00
2017-08-30T23:24:59.790Z,56.00
2017-08-30T23:27:27.292Z,55.90
2017-08-30T23:29:54.835Z,56.20
2017-08-30T23:32:22.339Z,56.10
2017-08-30T23:34:49.975Z,56.20
2017-08-30T23:37:17.595Z,56.10
2017-08-30T23:39:45.122Z,56.30
2017-08-30T23:42:12.746Z,56.30
2017-08-30T23:44:40.254Z,56.50
2017-08-30T23:47:07.757Z,56.50
2017-08-30T23:49:35.318Z,56.70
2017-08-30T23:52:02.815Z,56.60
2017-08-30T23:54:30.315Z,56.70
2017-08-30T23:56:57.816Z,56.50
2017-08-30T23:59:25.372Z,56.50
